Latest Weather Observations for North Head

IDN60801

Issued at 8:02 am EST Saturday 23 May 2015 (issued every 30 minutes, with the page automatically refreshed every 10 minutes)

About weather observations | Map of weather stations | Latest weather observations for NSW | Other Formats
Station Details ID: 066197 Name: NORTH HEAD Lat: -33.82 Lon: 151.30 Height: 90.0 m
Data from the previous 72 hours. | See also: Recent months for locations in New South Wales
Date/Time
EST
Temp
°C
App
Temp
°C
Dew
Point
Rel
Hum
%
Delta-T
°C
Wind Press
QNH
hPa
Press
MSL
hPa
Rain
since 9 am
mm
Dir
 
Spd
km/h
Gust
km/h
Spd
kts
Gust
kts
23/08:00am - - - - - WSW 19 32 10 17 - - -
23/07:30am - - - - - W 19 26 10 14 - - -
23/07:00am - - - - - WSW 19 24 10 13 - - -
23/06:30am - - - - - W 19 26 10 14 - - -
23/06:00am - - - - - W 17 26 9 14 - - -
23/05:30am - - - - - W 17 24 9 13 - - -
23/05:00am - - - - - WSW 17 26 9 14 - - -
23/04:30am - - - - - WSW 20 33 11 18 - - -
23/04:00am - - - - - WSW 17 24 9 13 - - -
23/03:30am - - - - - WSW 15 24 8 13 - - -
23/03:00am - - - - - WSW 20 33 11 18 - - -
23/02:30am - - - - - WSW 19 28 10 15 - - -
23/02:00am - - - - - WSW 15 28 8 15 - - -
23/01:30am - - - - - WSW 17 26 9 14 - - -
23/01:00am - - - - - WSW 9 20 5 11 - - -
23/12:30am - - - - - SW 11 24 6 13 - - -
23/12:00am - - - - - W 17 30 9 16 - - -
 
Date/Time
EST
Temp
°C
App
Temp
°C
Dew
Point
Rel
Hum
%
Delta-T
°C
Wind Press
QNH
hPa
Press
MSL
hPa
Rain
since 9 am
mm
Dir
 
Spd
km/h
Gust
km/h
Spd
kts
Gust
kts
22/11:30pm - - - - - W 17 28 9 15 - - -
22/11:00pm - - - - - S 20 43 11 23 - - -
22/10:30pm - - - - - S 28 44 15 24 - - -
22/10:00pm - - - - - S 30 54 16 29 - - -
22/09:57pm - - - - - S 28 54 15 29 - - -
22/09:30pm - - - - - SSE 33 48 18 26 - - -
22/09:09pm - - - - - S 20 56 11 30 - - -
22/09:00pm - - - - - SSW 20 50 11 27 - - -
22/08:32pm - - - - - SSE 33 54 18 29 - - -
22/08:30pm - - - - - SSE 37 54 20 29 - - -
22/08:00pm - - - - - SSE 37 57 20 31 - - -
22/07:36pm - - - - - SSE 44 65 24 35 - - -
22/07:30pm - - - - - S 43 61 23 33 - - -
22/07:20pm - - - - - SSW 26 54 14 29 - - -
22/07:00pm - - - - - S 32 57 17 31 - - -
22/06:48pm - - - - - SSE 37 57 20 31 - - -
22/06:43pm - - - - - S 35 57 19 31 - - -
22/06:31pm - - - - - SSW 26 46 14 25 - - -
22/06:30pm - - - - - SSW 28 46 15 25 - - -
22/06:25pm - - - - - S 30 50 16 27 - - -
22/06:00pm - - - - - S 37 57 20 31 - - -
22/05:30pm - - - - - S 39 59 21 32 - - -
22/05:00pm - - - - - S 41 63 22 34 - - -
22/04:30pm - - - - - S 44 69 24 37 - - -
22/04:00pm - - - - - S 41 63 22 34 - - -
22/03:30pm - - - - - S 46 67 25 36 - - -
22/03:00pm - - - - - S 46 74 25 40 - - -
22/02:30pm - - - - - S 43 63 23 34 - - -
22/02:00pm - - - - - S 41 61 22 33 - - -
22/01:30pm - - - - - S 46 70 25 38 - - -
22/01:00pm - - - - - S 50 74 27 40 - - -
22/12:30pm - - - - - S 52 76 28 41 - - -
22/12:00pm - - - - - SSE 46 78 25 42 - - -
22/11:30am - - - - - SSE 54 85 29 46 - - -
22/11:00am - - - - - SSE 52 85 28 46 - - -
22/10:41am - - - - - S 46 82 25 44 - - -
22/10:30am - - - - - SSE 30 48 16 26 - - -
22/10:00am - - - - - SSE 37 57 20 31 - - -
22/09:30am - - - - - SSE 39 59 21 32 - - -
22/09:00am - - - - - SSE 46 69 25 37 - - -
22/08:37am - - - - - SSE 32 59 17 32 - - -
22/08:34am - - - - - S 22 52 12 28 - - -
22/08:30am - - - - - SSW 17 35 9 19 - - -
22/08:00am - - - - - WSW 19 28 10 15 - - -
22/07:30am - - - - - SW 22 37 12 20 - - -
22/07:00am - - - - - WSW 24 41 13 22 - - -
22/06:30am - - - - - WSW 22 35 12 19 - - -
22/06:00am - - - - - WSW 22 33 12 18 - - -
22/05:30am - - - - - WSW 15 22 8 12 - - -
22/05:00am - - - - - WSW 19 26 10 14 - - -
22/04:30am - - - - - WSW 20 33 11 18 - - -
22/04:00am - - - - - WSW 22 32 12 17 - - -
22/03:30am - - - - - W 22 32 12 17 - - -
22/03:00am - - - - - W 19 28 10 15 - - -
22/02:30am - - - - - W 19 30 10 16 - - -
22/02:00am - - - - - W 15 22 8 12 - - -
22/01:30am - - - - - W 17 26 9 14 - - -
22/01:00am - - - - - WSW 15 28 8 15 - - -
22/12:30am - - - - - W 17 24 9 13 - - -
22/12:00am - - - - - WSW 17 26 9 14 - - -
 
Date/Time
EST
Temp
°C
App
Temp
°C
Dew
Point
Rel
Hum
%
Delta-T
°C
Wind Press
QNH
hPa
Press
MSL
hPa
Rain
since 9 am
mm
Dir
 
Spd
km/h
Gust
km/h
Spd
kts
Gust
kts
21/11:30pm - - - - - WSW 17 26 9 14 - - -
21/11:00pm - - - - - WSW 19 28 10 15 - - -
21/10:30pm - - - - - SW 15 26 8 14 - - -
21/10:00pm - - - - - SSW 20 33 11 18 - - -
21/09:30pm - - - - - SW 15 28 8 15 - - -
21/09:00pm - - - - - S 26 43 14 23 - - -
21/08:30pm - - - - - S 20 33 11 18 - - -
21/08:00pm - - - - - S 26 46 14 25 - - -
21/07:30pm - - - - - S 20 35 11 19 - - -
21/07:00pm - - - - - S 20 32 11 17 - - -
21/06:30pm - - - - - SSW 20 33 11 18 - - -
21/06:00pm - - - - - SSW 15 26 8 14 - - -
21/05:30pm - - - - - SSW 15 24 8 13 - - -
21/05:00pm - - - - - SSW 15 22 8 12 - - -
21/04:30pm - - - - - SSW 15 26 8 14 - - -
21/04:00pm - - - - - SSW 13 22 7 12 - - -
21/03:30pm - - - - - S 17 28 9 15 - - -
21/03:00pm - - - - - S 15 24 8 13 - - -
21/02:30pm - - - - - S 19 26 10 14 - - -
21/02:00pm - - - - - S 17 24 9 13 - - -
21/01:30pm - - - - - S 17 26 9 14 - - -
21/01:00pm - - - - - SSE 13 20 7 11 - - -
21/12:30pm - - - - - SSE 13 20 7 11 - - -
21/12:00pm - - - - - SW 9 15 5 8 - - -
21/11:30am - - - - - WSW 11 19 6 10 - - -
21/11:00am - - - - - WSW 13 19 7 10 - - -
21/10:30am - - - - - W 15 22 8 12 - - -
21/10:00am - - - - - W 15 24 8 13 - - -
21/09:30am - - - - - W 17 24 9 13 - - -
21/09:00am - - - - - W 17 24 9 13 - - -
21/08:30am - - - - - W 17 20 9 11 - - -
21/08:00am - - - - - W 17 24 9 13 - - -
21/07:30am - - - - - W 17 22 9 12 - - -
21/07:00am - - - - - W 15 22 8 12 - - -
21/06:30am - - - - - W 15 22 8 12 - - -
21/06:00am - - - - - WNW 13 17 7 9 - - -
21/05:30am - - - - - WNW 11 17 6 9 - - -
21/05:00am - - - - - WNW 11 13 6 7 - - -
21/04:30am - - - - - W 9 13 5 7 - - -
21/04:00am - - - - - W 9 13 5 7 - - -
21/03:30am - - - - - W 11 17 6 9 - - -
21/03:00am - - - - - W 11 17 6 9 - - -
21/02:30am - - - - - W 9 13 5 7 - - -
21/02:00am - - - - - WNW 13 19 7 10 - - -
21/01:30am - - - - - W 13 22 7 12 - - -
21/01:00am - - - - - W 15 22 8 12 - - -
21/12:30am - - - - - NW 15 22 8 12 - - -
21/12:00am - - - - - NW 15 24 8 13 - - -
 
Date/Time
EST
Temp
°C
App
Temp
°C
Dew
Point
Rel
Hum
%
Delta-T
°C
Wind Press
QNH
hPa
Press
MSL
hPa
Rain
since 9 am
mm
Dir
 
Spd
km/h
Gust
km/h
Spd
kts
Gust
kts
20/11:30pm - - - - - NW 13 24 7 13 - - -
20/11:00pm - - - - - NW 17 26 9 14 - - -
20/10:30pm - - - - - NW 13 22 7 12 - - -
20/10:00pm - - - - - NW 13 19 7 10 - - -
20/09:30pm - - - - - W 11 15 6 8 - - -
20/09:00pm - - - - - WNW 11 17 6 9 - - -
20/08:30pm - - - - - NW 9 13 5 7 - - -
20/08:00pm - - - - - NW 11 17 6 9 - - -
20/07:30pm - - - - - NNW 9 19 5 10 - - -
20/07:00pm - - - - - N 9 13 5 7 - - -
20/06:30pm - - - - - N 9 11 5 6 - - -
20/06:00pm - - - - - NNE 9 13 5 7 - - -
20/05:30pm - - - - - NE 9 17 5 9 - - -
20/05:00pm - - - - - NNE 9 9 5 5 - - -
20/04:30pm - - - - - NNE 9 13 5 7 - - -
20/04:00pm - - - - - NE 6 6 3 3 - - -
20/03:30pm - - - - - NE 6 9 3 5 - - -
20/03:00pm - - - - - ENE 9 15 5 8 - - -
20/02:30pm - - - - - ENE 6 9 3 5 - - -
20/02:00pm - - - - - E 7 13 4 7 - - -
20/01:30pm - - - - - E 9 11 5 6 - - -
20/01:00pm - - - - - S 7 11 4 6 - - -
20/12:30pm - - - - - W 6 9 3 5 - - -
20/12:00pm - - - - - WNW 9 15 5 8 - - -
20/11:30am - - - - - NW 13 19 7 10 - - -
20/11:00am - - - - - NW 9 15 5 8 - - -
20/10:30am - - - - - NW 9 15 5 8 - - -
20/10:00am - - - - - NW 13 19 7 10 - - -
20/09:30am - - - - - NW 17 30 9 16 - - -
20/09:00am - - - - - NW 13 20 7 11 - - -
20/08:30am - - - - - NW 13 20 7 11 - - -

Other Formats:

Comma delimited format used in spreadsheet applications
http://www.bom.gov.au/fwo/IDN60801/IDN60801.95768.axf

JavaScript Object Notation format (JSON) in row-major order
http://www.bom.gov.au/fwo/IDN60801/IDN60801.95768.json